sensor_id;sensor_type;location;lat;lon;timestamp;temperature;humidity
23271;DHT22;11804;51.118;17.058;2022-08-01T00:00:55;17.90;99.90
23271;DHT22;11804;51.118;17.058;2022-08-01T00:03:23;17.90;99.90
23271;DHT22;11804;51.118;17.058;2022-08-01T00:05:51;17.80;99.90
23271;DHT22;11804;51.118;17.058;2022-08-01T00:08:18;17.80;99.90
23271;DHT22;11804;51.118;17.058;2022-08-01T00:10:46;17.80;99.90
23271;DHT22;11804;51.118;17.058;2022-08-01T00:13:13;17.80;99.90
23271;DHT22;11804;51.118;17.058;2022-08-01T00:15:41;17.80;99.90
23271;DHT22;11804;51.118;17.058;2022-08-01T00:18:08;17.70;99.90
23271;DHT22;11804;51.118;17.058;2022-08-01T00:20:36;17.50;99.90
23271;DHT22;11804;51.118;17.058;2022-08-01T00:23:04;17.40;99.90
23271;DHT22;11804;51.118;17.058;2022-08-01T00:25:31;17.40;99.90
23271;DHT22;11804;51.118;17.058;2022-08-01T00:27:59;17.40;99.90
23271;DHT22;11804;51.118;17.058;2022-08-01T00:30:26;17.20;99.90
23271;DHT22;11804;51.118;17.058;2022-08-01T00:32:55;17.10;99.90
23271;DHT22;11804;51.118;17.058;2022-08-01T00:35:23;17.20;99.90
23271;DHT22;11804;51.118;17.058;2022-08-01T00:37:50;17.20;99.90
23271;DHT22;11804;51.118;17.058;2022-08-01T00:40:18;17.40;99.90
23271;DHT22;11804;51.118;17.058;2022-08-01T00:42:45;17.40;99.90
23271;DHT22;11804;51.118;17.058;2022-08-01T00:45:13;17.40;99.90
23271;DHT22;11804;51.118;17.058;2022-08-01T00:47:41;17.40;99.90
23271;DHT22;11804;51.118;17.058;2022-08-01T00:50:10;17.40;99.90
23271;DHT22;11804;51.118;17.058;2022-08-01T00:52:39;17.50;99.90
23271;DHT22;11804;51.118;17.058;2022-08-01T00:55:08;17.40;99.90
23271;DHT22;11804;51.118;17.058;2022-08-01T00:57:35;17.40;99.90
23271;DHT22;11804;51.118;17.058;2022-08-01T01:00:05;17.40;99.90
23271;DHT22;11804;51.118;17.058;2022-08-01T01:02:33;17.30;99.90
23271;DHT22;11804;51.118;17.058;2022-08-01T01:05:02;17.20;99.90
23271;DHT22;11804;51.118;17.058;2022-08-01T01:07:40;17.00;99.90
23271;DHT22;11804;51.118;17.058;2022-08-01T01:10:21;16.90;99.90
23271;DHT22;11804;51.118;17.058;2022-08-01T01:12:55;16.80;99.90
23271;DHT22;11804;51.118;17.058;2022-08-01T01:15:34;16.80;99.90
23271;DHT22;11804;51.118;17.058;2022-08-01T01:18:20;17.00;99.90
23271;DHT22;11804;51.118;17.058;2022-08-01T01:21:07;17.00;99.90
23271;DHT22;11804;51.118;17.058;2022-08-01T01:23:40;17.10;99.90
23271;DHT22;11804;51.118;17.058;2022-08-01T01:29:17;17.30;99.90
23271;DHT22;11804;51.118;17.058;2022-08-01T01:31:55;17.30;99.90
23271;DHT22;11804;51.118;17.058;2022-08-01T01:34:17;17.30;99.90
23271;DHT22;11804;51.118;17.058;2022-08-01T01:36:47;17.30;99.90
23271;DHT22;11804;51.118;17.058;2022-08-01T01:39:17;17.30;99.90
23271;DHT22;11804;51.118;17.058;2022-08-01T01:41:47;17.20;99.90
23271;DHT22;11804;51.118;17.058;2022-08-01T01:47:45;17.00;99.90
23271;DHT22;11804;51.118;17.058;2022-08-01T01:50:14;16.90;99.90
23271;DHT22;11804;51.118;17.058;2022-08-01T02:02:35;16.70;99.90
23271;DHT22;11804;51.118;17.058;2022-08-01T02:05:23;16.80;99.90
23271;DHT22;11804;51.118;17.058;2022-08-01T02:07:50;16.80;99.90
23271;DHT22;11804;51.118;17.058;2022-08-01T02:18:22;16.60;99.90
23271;DHT22;11804;51.118;17.058;2022-08-01T02:20:33;16.50;99.90
23271;DHT22;11804;51.118;17.058;2022-08-01T02:23:10;16.40;99.90
23271;DHT22;11804;51.118;17.058;2022-08-01T02:25:52;16.40;99.90
23271;DHT22;11804;51.118;17.058;2022-08-01T02:28:29;16.40;99.90
23271;DHT22;11804;51.118;17.058;2022-08-01T02:31:00;16.60;99.90
23271;DHT22;11804;51.118;17.058;2022-08-01T02:33:38;16.70;99.90
23271;DHT22;11804;51.118;17.058;2022-08-01T02:36:05;16.90;99.90
23271;DHT22;11804;51.118;17.058;2022-08-01T02:38:35;16.90;99.90
23271;DHT22;11804;51.118;17.058;2022-08-01T02:41:08;17.00;99.90
23271;DHT22;11804;51.118;17.058;2022-08-01T02:43:48;17.00;99.90
23271;DHT22;11804;51.118;17.058;2022-08-01T02:52:20;16.90;99.90
23271;DHT22;11804;51.118;17.058;2022-08-01T02:54:47;17.00;99.90
23271;DHT22;11804;51.118;17.058;2022-08-01T02:57:24;16.90;99.90
23271;DHT22;11804;51.118;17.058;2022-08-01T03:00:00;16.70;99.90
23271;DHT22;11804;51.118;17.058;2022-08-01T03:02:32;16.50;99.90
23271;DHT22;11804;51.118;17.058;2022-08-01T03:05:08;16.50;99.90
23271;DHT22;11804;51.118;17.058;2022-08-01T03:07:57;16.40;99.90
23271;DHT22;11804;51.118;17.058;2022-08-01T03:10:28;16.30;99.90
23271;DHT22;11804;51.118;17.058;2022-08-01T03:37:24;16.50;99.90
23271;DHT22;11804;51.118;17.058;2022-08-01T03:39:56;16.40;99.90
23271;DHT22;11804;51.118;17.058;2022-08-01T03:42:50;16.40;99.90
23271;DHT22;11804;51.118;17.058;2022-08-01T03:45:27;16.40;99.90
23271;DHT22;11804;51.118;17.058;2022-08-01T03:48:02;16.60;99.90
23271;DHT22;11804;51.118;17.058;2022-08-01T04:05:18;17.20;99.90
23271;DHT22;11804;51.118;17.058;2022-08-01T04:07:46;17.30;99.90
23271;DHT22;11804;51.118;17.058;2022-08-01T04:10:26;17.20;99.90
23271;DHT22;11804;51.118;17.058;2022-08-01T04:13:01;17.20;99.90
23271;DHT22;11804;51.118;17.058;2022-08-01T04:16:04;17.20;99.90
23271;DHT22;11804;51.118;17.058;2022-08-01T04:18:33;17.20;99.90
23271;DHT22;11804;51.118;17.058;2022-08-01T04:21:02;17.20;99.90
23271;DHT22;11804;51.118;17.058;2022-08-01T04:23:36;17.20;99.90
23271;DHT22;11804;51.118;17.058;2022-08-01T04:26:32;17.20;99.90
23271;DHT22;11804;51.118;17.058;2022-08-01T04:29:03;17.30;99.90
23271;DHT22;11804;51.118;17.058;2022-08-01T04:31:33;17.30;99.90
23271;DHT22;11804;51.118;17.058;2022-08-01T04:34:04;17.30;99.90
23271;DHT22;11804;51.118;17.058;2022-08-01T04:43:15;17.40;99.90
23271;DHT22;11804;51.118;17.058;2022-08-01T04:46:07;17.40;99.90
23271;DHT22;11804;51.118;17.058;2022-08-01T04:57:41;17.50;99.90
23271;DHT22;11804;51.118;17.058;2022-08-01T05:06:51;17.60;99.90
23271;DHT22;11804;51.118;17.058;2022-08-01T05:09:43;17.60;99.90
23271;DHT22;11804;51.118;17.058;2022-08-01T05:15:31;17.70;99.90
23271;DHT22;11804;51.118;17.058;2022-08-01T05:18:01;17.80;99.90
23271;DHT22;11804;51.118;17.058;2022-08-01T05:20:30;17.90;99.90
23271;DHT22;11804;51.118;17.058;2022-08-01T05:23:25;17.90;99.90
23271;DHT22;11804;51.118;17.058;2022-08-01T05:44:46;18.10;99.90
23271;DHT22;11804;51.118;17.058;2022-08-01T05:56:20;18.50;99.90
23271;DHT22;11804;51.118;17.058;2022-08-01T05:59:00;18.60;99.90
23271;DHT22;11804;51.118;17.058;2022-08-01T06:01:39;18.70;99.90
23271;DHT22;11804;51.118;17.058;2022-08-01T06:04:13;18.80;99.90
23271;DHT22;11804;51.118;17.058;2022-08-01T06:09:13;19.10;99.90
23271;DHT22;11804;51.118;17.058;2022-08-01T06:14:32;19.30;99.90
23271;DHT22;11804;51.118;17.058;2022-08-01T06:17:05;19.50;99.90
23271;DHT22;11804;51.118;17.058;2022-08-01T06:22:17;19.70;99.90
23271;DHT22;11804;51.118;17.058;2022-08-01T06:24:47;20.10;99.90
23271;DHT22;11804;51.118;17.058;2022-08-01T06:27:15;20.70;99.90
23271;DHT22;11804;51.118;17.058;2022-08-01T06:29:43;21.30;99.90
23271;DHT22;11804;51.118;17.058;2022-08-01T06:32:11;21.50;99.90
23271;DHT22;11804;51.118;17.058;2022-08-01T06:34:46;21.70;99.90
23271;DHT22;11804;51.118;17.058;2022-08-01T06:40:19;22.00;99.90
23271;DHT22;11804;51.118;17.058;2022-08-01T06:42:55;22.10;99.90
23271;DHT22;11804;51.118;17.058;2022-08-01T06:45:30;22.00;99.90
23271;DHT22;11804;51.118;17.058;2022-08-01T06:51:34;21.90;99.90
23271;DHT22;11804;51.118;17.058;2022-08-01T06:54:03;22.00;99.90
23271;DHT22;11804;51.118;17.058;2022-08-01T06:56:41;22.00;99.90
23271;DHT22;11804;51.118;17.058;2022-08-01T07:02:18;22.30;99.90
23271;DHT22;11804;51.118;17.058;2022-08-01T07:04:47;22.30;99.90
23271;DHT22;11804;51.118;17.058;2022-08-01T07:07:37;22.50;99.90
23271;DHT22;11804;51.118;17.058;2022-08-01T07:13:33;23.20;99.90
23271;DHT22;11804;51.118;17.058;2022-08-01T07:16:46;23.50;99.90
23271;DHT22;11804;51.118;17.058;2022-08-01T07:22:10;23.90;99.00
23271;DHT22;11804;51.118;17.058;2022-08-01T07:24:50;24.10;96.80
23271;DHT22;11804;51.118;17.058;2022-08-01T07:47:32;25.50;88.10
23271;DHT22;11804;51.118;17.058;2022-08-01T07:50:26;25.30;88.80
23271;DHT22;11804;51.118;17.058;2022-08-01T07:53:28;25.10;89.70
23271;DHT22;11804;51.118;17.058;2022-08-01T07:55:45;24.90;90.10
23271;DHT22;11804;51.118;17.058;2022-08-01T07:58:13;24.80;90.40
23271;DHT22;11804;51.118;17.058;2022-08-01T08:00:41;24.80;90.90
23271;DHT22;11804;51.118;17.058;2022-08-01T08:03:26;24.60;90.90
23271;DHT22;11804;51.118;17.058;2022-08-01T08:06:01;24.30;90.80
23271;DHT22;11804;51.118;17.058;2022-08-01T08:08:36;24.10;92.10
23271;DHT22;11804;51.118;17.058;2022-08-01T08:14:10;24.00;94.10
23271;DHT22;11804;51.118;17.058;2022-08-01T08:19:26;24.70;92.40
23271;DHT22;11804;51.118;17.058;2022-08-01T08:27:16;25.70;86.00
23271;DHT22;11804;51.118;17.058;2022-08-01T08:29:44;25.90;83.90
23271;DHT22;11804;51.118;17.058;2022-08-01T08:32:13;26.00;83.00
23271;DHT22;11804;51.118;17.058;2022-08-01T08:34:57;26.10;82.80
23271;DHT22;11804;51.118;17.058;2022-08-01T08:37:29;26.00;82.00
23271;DHT22;11804;51.118;17.058;2022-08-01T08:40:00;25.80;82.80
23271;DHT22;11804;51.118;17.058;2022-08-01T08:42:33;25.60;84.50
23271;DHT22;11804;51.118;17.058;2022-08-01T08:48:11;25.90;84.00
23271;DHT22;11804;51.118;17.058;2022-08-01T08:50:47;25.60;84.70
23271;DHT22;11804;51.118;17.058;2022-08-01T08:56:02;25.40;86.70
23271;DHT22;11804;51.118;17.058;2022-08-01T08:58:44;25.30;87.80
23271;DHT22;11804;51.118;17.058;2022-08-01T09:04:41;25.40;89.40
23271;DHT22;11804;51.118;17.058;2022-08-01T09:06:56;25.60;88.30
23271;DHT22;11804;51.118;17.058;2022-08-01T09:09:20;26.00;89.00
23271;DHT22;11804;51.118;17.058;2022-08-01T09:11:57;26.50;85.70
23271;DHT22;11804;51.118;17.058;2022-08-01T09:14:29;26.40;83.90
23271;DHT22;11804;51.118;17.058;2022-08-01T09:19:48;28.40;78.00
23271;DHT22;11804;51.118;17.058;2022-08-01T09:22:30;28.90;71.90
23271;DHT22;11804;51.118;17.058;2022-08-01T09:25:04;28.40;71.50
23271;DHT22;11804;51.118;17.058;2022-08-01T09:32:59;26.80;79.10
23271;DHT22;11804;51.118;17.058;2022-08-01T09:35:34;26.70;81.20
23271;DHT22;11804;51.118;17.058;2022-08-01T09:38:18;27.10;79.40
23271;DHT22;11804;51.118;17.058;2022-08-01T09:40:51;27.50;77.10
23271;DHT22;11804;51.118;17.058;2022-08-01T09:43:22;28.40;73.00
23271;DHT22;11804;51.118;17.058;2022-08-01T09:45:55;29.10;70.00
23271;DHT22;11804;51.118;17.058;2022-08-01T09:48:23;28.90;67.80
23271;DHT22;11804;51.118;17.058;2022-08-01T09:50:58;28.60;68.90
23271;DHT22;11804;51.118;17.058;2022-08-01T09:56:15;28.00;71.40
23271;DHT22;11804;51.118;17.058;2022-08-01T09:58:56;27.40;72.40
23271;DHT22;11804;51.118;17.058;2022-08-01T10:01:24;27.10;73.30
23271;DHT22;11804;51.118;17.058;2022-08-01T10:04:06;27.10;75.00
23271;DHT22;11804;51.118;17.058;2022-08-01T10:06:34;27.40;75.10
23271;DHT22;11804;51.118;17.058;2022-08-01T10:09:03;28.20;73.80
23271;DHT22;11804;51.118;17.058;2022-08-01T10:11:32;29.20;69.50
23271;DHT22;11804;51.118;17.058;2022-08-01T10:14:04;29.50;67.00
23271;DHT22;11804;51.118;17.058;2022-08-01T10:16:35;29.80;65.50
23271;DHT22;11804;51.118;17.058;2022-08-01T10:19:05;29.90;64.70
23271;DHT22;11804;51.118;17.058;2022-08-01T10:21:33;30.10;63.20
23271;DHT22;11804;51.118;17.058;2022-08-01T10:24:03;29.70;64.70
23271;DHT22;11804;51.118;17.058;2022-08-01T10:26:33;29.10;66.60
23271;DHT22;11804;51.118;17.058;2022-08-01T10:29:02;28.60;69.10
23271;DHT22;11804;51.118;17.058;2022-08-01T10:31:30;28.50;69.90
23271;DHT22;11804;51.118;17.058;2022-08-01T10:34:01;28.70;69.30
23271;DHT22;11804;51.118;17.058;2022-08-01T10:36:30;29.20;67.70
23271;DHT22;11804;51.118;17.058;2022-08-01T10:38:58;29.00;67.80
23271;DHT22;11804;51.118;17.058;2022-08-01T10:41:27;28.50;69.50
23271;DHT22;11804;51.118;17.058;2022-08-01T10:43:56;27.90;71.00
23271;DHT22;11804;51.118;17.058;2022-08-01T10:46:24;27.70;72.50
23271;DHT22;11804;51.118;17.058;2022-08-01T10:49:12;27.90;73.10
23271;DHT22;11804;51.118;17.058;2022-08-01T10:51:41;27.90;73.20
23271;DHT22;11804;51.118;17.058;2022-08-01T10:54:10;27.90;73.70
23271;DHT22;11804;51.118;17.058;2022-08-01T10:56:50;28.00;73.60
23271;DHT22;11804;51.118;17.058;2022-08-01T11:02:02;27.70;74.30
23271;DHT22;11804;51.118;17.058;2022-08-01T11:07:16;27.50;76.30
23271;DHT22;11804;51.118;17.058;2022-08-01T11:09:45;27.70;75.30
23271;DHT22;11804;51.118;17.058;2022-08-01T11:12:16;27.50;75.70
23271;DHT22;11804;51.118;17.058;2022-08-01T11:17:42;27.40;76.60
23271;DHT22;11804;51.118;17.058;2022-08-01T11:20:24;27.70;75.90
23271;DHT22;11804;51.118;17.058;2022-08-01T11:30:53;27.30;76.40
23271;DHT22;11804;51.118;17.058;2022-08-01T11:38:48;27.20;77.30
23271;DHT22;11804;51.118;17.058;2022-08-01T11:41:26;27.50;76.00
23271;DHT22;11804;51.118;17.058;2022-08-01T11:44:14;27.60;74.60
23271;DHT22;11804;51.118;17.058;2022-08-01T11:52:10;27.90;72.10
23271;DHT22;11804;51.118;17.058;2022-08-01T11:54:49;27.90;72.30
23271;DHT22;11804;51.118;17.058;2022-08-01T11:57:21;28.30;72.00
23271;DHT22;11804;51.118;17.058;2022-08-01T11:59:55;28.40;70.90
23271;DHT22;11804;51.118;17.058;2022-08-01T12:02:29;27.90;71.10
23271;DHT22;11804;51.118;17.058;2022-08-01T12:05:00;27.70;72.50
23271;DHT22;11804;51.118;17.058;2022-08-01T12:07:30;27.60;72.80
23271;DHT22;11804;51.118;17.058;2022-08-01T12:10:03;27.80;73.30
23271;DHT22;11804;51.118;17.058;2022-08-01T12:12:33;27.90;72.40
23271;DHT22;11804;51.118;17.058;2022-08-01T12:15:04;28.00;73.10
23271;DHT22;11804;51.118;17.058;2022-08-01T12:17:37;28.10;71.40
23271;DHT22;11804;51.118;17.058;2022-08-01T12:20:08;27.80;72.40
23271;DHT22;11804;51.118;17.058;2022-08-01T12:22:36;27.90;73.00
23271;DHT22;11804;51.118;17.058;2022-08-01T12:25:12;27.70;72.30
23271;DHT22;11804;51.118;17.058;2022-08-01T12:27:42;27.60;73.20
23271;DHT22;11804;51.118;17.058;2022-08-01T12:30:12;27.90;72.60
23271;DHT22;11804;51.118;17.058;2022-08-01T12:32:41;28.10;70.80
23271;DHT22;11804;51.118;17.058;2022-08-01T12:35:14;27.80;71.10
23271;DHT22;11804;51.118;17.058;2022-08-01T12:37:46;27.60;72.80
23271;DHT22;11804;51.118;17.058;2022-08-01T12:40:19;27.60;72.50
23271;DHT22;11804;51.118;17.058;2022-08-01T12:42:52;27.30;72.50
23271;DHT22;11804;51.118;17.058;2022-08-01T12:45:24;27.40;72.90
23271;DHT22;11804;51.118;17.058;2022-08-01T12:47:52;27.40;73.80
23271;DHT22;11804;51.118;17.058;2022-08-01T12:50:22;27.30;74.60
23271;DHT22;11804;51.118;17.058;2022-08-01T12:52:51;27.40;73.90
23271;DHT22;11804;51.118;17.058;2022-08-01T12:55:23;27.30;74.20
23271;DHT22;11804;51.118;17.058;2022-08-01T12:58:09;27.30;74.50
23271;DHT22;11804;51.118;17.058;2022-08-01T13:00:38;27.50;74.10
23271;DHT22;11804;51.118;17.058;2022-08-01T13:03:18;27.40;74.90
23271;DHT22;11804;51.118;17.058;2022-08-01T13:05:48;27.10;75.40
23271;DHT22;11804;51.118;17.058;2022-08-01T13:08:21;26.90;76.60
23271;DHT22;11804;51.118;17.058;2022-08-01T13:10:49;26.90;77.30
23271;DHT22;11804;51.118;17.058;2022-08-01T13:13:18;26.90;77.00
23271;DHT22;11804;51.118;17.058;2022-08-01T13:15:47;27.10;76.70
23271;DHT22;11804;51.118;17.058;2022-08-01T13:18:28;27.30;76.00
23271;DHT22;11804;51.118;17.058;2022-08-01T13:21:11;27.40;75.60
23271;DHT22;11804;51.118;17.058;2022-08-01T13:23:40;27.50;74.80
23271;DHT22;11804;51.118;17.058;2022-08-01T13:26:08;27.40;75.40
23271;DHT22;11804;51.118;17.058;2022-08-01T13:28:36;27.50;75.60
23271;DHT22;11804;51.118;17.058;2022-08-01T13:31:06;27.50;75.80
23271;DHT22;11804;51.118;17.058;2022-08-01T13:33:45;27.50;76.20
23271;DHT22;11804;51.118;17.058;2022-08-01T13:36:14;27.50;76.50
23271;DHT22;11804;51.118;17.058;2022-08-01T13:38:42;27.30;76.90
23271;DHT22;11804;51.118;17.058;2022-08-01T13:41:28;27.10;75.70
23271;DHT22;11804;51.118;17.058;2022-08-01T13:43:55;27.10;75.50
23271;DHT22;11804;51.118;17.058;2022-08-01T13:46:23;27.20;74.50
23271;DHT22;11804;51.118;17.058;2022-08-01T13:48:50;27.20;74.80
23271;DHT22;11804;51.118;17.058;2022-08-01T13:51:18;27.30;75.30
23271;DHT22;11804;51.118;17.058;2022-08-01T13:53:45;27.20;75.50
23271;DHT22;11804;51.118;17.058;2022-08-01T13:56:13;27.20;75.70
23271;DHT22;11804;51.118;17.058;2022-08-01T13:58:42;27.20;75.20
23271;DHT22;11804;51.118;17.058;2022-08-01T14:01:10;27.20;75.70
23271;DHT22;11804;51.118;17.058;2022-08-01T14:03:38;27.20;76.00
23271;DHT22;11804;51.118;17.058;2022-08-01T14:06:06;27.00;76.20
23271;DHT22;11804;51.118;17.058;2022-08-01T14:08:33;27.10;76.10
23271;DHT22;11804;51.118;17.058;2022-08-01T14:11:01;27.20;75.20
23271;DHT22;11804;51.118;17.058;2022-08-01T14:13:28;27.20;75.30
23271;DHT22;11804;51.118;17.058;2022-08-01T14:15:56;27.20;73.20
23271;DHT22;11804;51.118;17.058;2022-08-01T14:18:24;27.10;73.60
23271;DHT22;11804;51.118;17.058;2022-08-01T14:20:52;27.10;74.40
23271;DHT22;11804;51.118;17.058;2022-08-01T14:23:19;27.00;75.50
23271;DHT22;11804;51.118;17.058;2022-08-01T14:25:47;26.90;76.80
23271;DHT22;11804;51.118;17.058;2022-08-01T14:28:15;27.00;77.50
23271;DHT22;11804;51.118;17.058;2022-08-01T14:30:44;27.00;77.30
23271;DHT22;11804;51.118;17.058;2022-08-01T14:33:12;26.90;79.00
23271;DHT22;11804;51.118;17.058;2022-08-01T14:35:41;27.00;77.70
23271;DHT22;11804;51.118;17.058;2022-08-01T14:38:08;27.00;77.10
23271;DHT22;11804;51.118;17.058;2022-08-01T14:40:36;27.00;76.00
23271;DHT22;11804;51.118;17.058;2022-08-01T14:43:03;26.80;77.30
23271;DHT22;11804;51.118;17.058;2022-08-01T14:45:31;26.70;83.10
23271;DHT22;11804;51.118;17.058;2022-08-01T14:47:59;26.60;78.90
23271;DHT22;11804;51.118;17.058;2022-08-01T14:50:27;26.70;77.80
23271;DHT22;11804;51.118;17.058;2022-08-01T14:52:54;26.70;76.70
23271;DHT22;11804;51.118;17.058;2022-08-01T14:55:22;26.70;75.80
23271;DHT22;11804;51.118;17.058;2022-08-01T14:57:51;26.80;76.60
23271;DHT22;11804;51.118;17.058;2022-08-01T15:00:20;26.70;75.20
23271;DHT22;11804;51.118;17.058;2022-08-01T15:02:48;26.60;75.80
23271;DHT22;11804;51.118;17.058;2022-08-01T15:05:15;26.60;76.80
23271;DHT22;11804;51.118;17.058;2022-08-01T15:07:43;26.50;76.80
23271;DHT22;11804;51.118;17.058;2022-08-01T15:10:11;26.50;77.80
23271;DHT22;11804;51.118;17.058;2022-08-01T15:12:38;26.40;78.30
23271;DHT22;11804;51.118;17.058;2022-08-01T15:15:07;26.40;77.90
23271;DHT22;11804;51.118;17.058;2022-08-01T15:17:34;26.60;78.50
23271;DHT22;11804;51.118;17.058;2022-08-01T15:20:05;26.80;78.10
23271;DHT22;11804;51.118;17.058;2022-08-01T15:22:33;27.10;76.90
23271;DHT22;11804;51.118;17.058;2022-08-01T15:25:02;27.30;75.20
23271;DHT22;11804;51.118;17.058;2022-08-01T15:27:30;27.70;73.20
23271;DHT22;11804;51.118;17.058;2022-08-01T15:29:57;27.60;72.90
23271;DHT22;11804;51.118;17.058;2022-08-01T15:32:25;27.70;72.80
23271;DHT22;11804;51.118;17.058;2022-08-01T15:34:52;27.50;73.30
23271;DHT22;11804;51.118;17.058;2022-08-01T15:37:21;27.20;74.70
23271;DHT22;11804;51.118;17.058;2022-08-01T15:39:48;26.80;77.20
23271;DHT22;11804;51.118;17.058;2022-08-01T15:42:17;26.50;80.20
23271;DHT22;11804;51.118;17.058;2022-08-01T15:44:45;26.00;84.60
23271;DHT22;11804;51.118;17.058;2022-08-01T15:47:13;25.70;88.40
23271;DHT22;11804;51.118;17.058;2022-08-01T15:49:40;25.50;90.90
23271;DHT22;11804;51.118;17.058;2022-08-01T15:52:08;25.40;92.40
23271;DHT22;11804;51.118;17.058;2022-08-01T15:54:36;25.30;93.30
23271;DHT22;11804;51.118;17.058;2022-08-01T15:57:07;25.10;94.50
23271;DHT22;11804;51.118;17.058;2022-08-01T15:59:36;25.00;95.60
23271;DHT22;11804;51.118;17.058;2022-08-01T16:02:03;24.90;96.50
23271;DHT22;11804;51.118;17.058;2022-08-01T16:04:31;24.90;97.40
23271;DHT22;11804;51.118;17.058;2022-08-01T16:06:59;24.70;98.00
23271;DHT22;11804;51.118;17.058;2022-08-01T16:09:27;24.60;99.50
23271;DHT22;11804;51.118;17.058;2022-08-01T16:11:54;24.60;99.90
23271;DHT22;11804;51.118;17.058;2022-08-01T16:14:22;24.70;99.90
23271;DHT22;11804;51.118;17.058;2022-08-01T16:16:50;24.70;99.90
23271;DHT22;11804;51.118;17.058;2022-08-01T16:19:18;24.70;99.80
23271;DHT22;11804;51.118;17.058;2022-08-01T16:21:45;24.80;99.50
23271;DHT22;11804;51.118;17.058;2022-08-01T16:24:13;24.70;98.70
23271;DHT22;11804;51.118;17.058;2022-08-01T16:26:41;24.50;98.00
23271;DHT22;11804;51.118;17.058;2022-08-01T16:29:08;24.30;98.40
23271;DHT22;11804;51.118;17.058;2022-08-01T16:31:36;24.30;98.60
23271;DHT22;11804;51.118;17.058;2022-08-01T16:34:03;24.30;98.70
23271;DHT22;11804;51.118;17.058;2022-08-01T16:36:31;24.30;99.30
23271;DHT22;11804;51.118;17.058;2022-08-01T16:38:58;24.30;99.80
23271;DHT22;11804;51.118;17.058;2022-08-01T16:41:26;24.30;99.90
23271;DHT22;11804;51.118;17.058;2022-08-01T16:43:54;24.20;99.90
23271;DHT22;11804;51.118;17.058;2022-08-01T16:46:23;24.20;99.90
23271;DHT22;11804;51.118;17.058;2022-08-01T16:48:53;24.20;99.90
23271;DHT22;11804;51.118;17.058;2022-08-01T16:51:21;24.10;99.90
23271;DHT22;11804;51.118;17.058;2022-08-01T16:53:48;24.00;99.90
23271;DHT22;11804;51.118;17.058;2022-08-01T16:56:16;23.90;99.90
23271;DHT22;11804;51.118;17.058;2022-08-01T16:58:44;23.90;99.90
23271;DHT22;11804;51.118;17.058;2022-08-01T17:01:11;23.80;99.90
23271;DHT22;11804;51.118;17.058;2022-08-01T17:03:39;23.80;99.90
23271;DHT22;11804;51.118;17.058;2022-08-01T17:06:07;23.80;99.90
23271;DHT22;11804;51.118;17.058;2022-08-01T17:08:34;23.80;99.90
23271;DHT22;11804;51.118;17.058;2022-08-01T17:11:03;23.90;99.90
23271;DHT22;11804;51.118;17.058;2022-08-01T17:13:30;24.00;99.90
23271;DHT22;11804;51.118;17.058;2022-08-01T17:15:58;24.00;99.90
23271;DHT22;11804;51.118;17.058;2022-08-01T17:18:26;24.00;99.90
23271;DHT22;11804;51.118;17.058;2022-08-01T17:20:54;24.00;99.90
23271;DHT22;11804;51.118;17.058;2022-08-01T17:23:22;24.00;99.90
23271;DHT22;11804;51.118;17.058;2022-08-01T17:25:49;23.90;99.90
23271;DHT22;11804;51.118;17.058;2022-08-01T17:28:17;23.90;99.90
23271;DHT22;11804;51.118;17.058;2022-08-01T17:30:47;23.80;99.90
23271;DHT22;11804;51.118;17.058;2022-08-01T17:33:15;23.80;99.90
23271;DHT22;11804;51.118;17.058;2022-08-01T17:35:42;23.60;99.90
23271;DHT22;11804;51.118;17.058;2022-08-01T17:38:10;23.50;99.90
23271;DHT22;11804;51.118;17.058;2022-08-01T17:40:37;23.50;99.90
23271;DHT22;11804;51.118;17.058;2022-08-01T17:43:05;23.40;99.90
23271;DHT22;11804;51.118;17.058;2022-08-01T17:45:33;23.30;99.90
23271;DHT22;11804;51.118;17.058;2022-08-01T17:48:00;23.30;99.90
23271;DHT22;11804;51.118;17.058;2022-08-01T17:50:28;23.30;99.90
23271;DHT22;11804;51.118;17.058;2022-08-01T17:52:55;23.30;99.90
23271;DHT22;11804;51.118;17.058;2022-08-01T17:55:23;23.20;99.90
23271;DHT22;11804;51.118;17.058;2022-08-01T17:57:50;23.20;99.90
23271;DHT22;11804;51.118;17.058;2022-08-01T18:00:18;23.20;99.90
23271;DHT22;11804;51.118;17.058;2022-08-01T18:02:46;23.20;99.90
23271;DHT22;11804;51.118;17.058;2022-08-01T18:05:13;23.10;99.90
23271;DHT22;11804;51.118;17.058;2022-08-01T18:07:41;23.10;99.90
23271;DHT22;11804;51.118;17.058;2022-08-01T18:10:10;23.10;99.90
23271;DHT22;11804;51.118;17.058;2022-08-01T18:12:38;23.00;99.90
23271;DHT22;11804;51.118;17.058;2022-08-01T18:15:06;23.00;99.90
23271;DHT22;11804;51.118;17.058;2022-08-01T18:17:34;23.00;99.90
23271;DHT22;11804;51.118;17.058;2022-08-01T18:20:01;23.00;99.90
23271;DHT22;11804;51.118;17.058;2022-08-01T18:22:29;23.00;99.90
23271;DHT22;11804;51.118;17.058;2022-08-01T18:24:57;23.00;99.90
23271;DHT22;11804;51.118;17.058;2022-08-01T18:27:24;22.90;99.90
23271;DHT22;11804;51.118;17.058;2022-08-01T18:29:52;22.90;99.90
23271;DHT22;11804;51.118;17.058;2022-08-01T18:32:19;22.80;99.90
23271;DHT22;11804;51.118;17.058;2022-08-01T18:34:47;22.80;99.90
23271;DHT22;11804;51.118;17.058;2022-08-01T18:37:15;22.70;99.90
23271;DHT22;11804;51.118;17.058;2022-08-01T18:39:43;22.60;99.90
23271;DHT22;11804;51.118;17.058;2022-08-01T18:42:11;22.70;99.90
23271;DHT22;11804;51.118;17.058;2022-08-01T18:44:38;22.70;99.90
23271;DHT22;11804;51.118;17.058;2022-08-01T18:47:06;22.60;99.90
23271;DHT22;11804;51.118;17.058;2022-08-01T18:49:33;22.60;99.90
23271;DHT22;11804;51.118;17.058;2022-08-01T18:52:01;22.60;99.90
23271;DHT22;11804;51.118;17.058;2022-08-01T18:54:30;22.50;99.90
23271;DHT22;11804;51.118;17.058;2022-08-01T18:56:58;22.50;99.90
23271;DHT22;11804;51.118;17.058;2022-08-01T18:59:26;22.40;99.90
23271;DHT22;11804;51.118;17.058;2022-08-01T19:01:53;22.40;99.90
23271;DHT22;11804;51.118;17.058;2022-08-01T19:04:21;22.30;99.90
23271;DHT22;11804;51.118;17.058;2022-08-01T19:06:48;22.20;99.90
23271;DHT22;11804;51.118;17.058;2022-08-01T19:09:16;22.20;99.90
23271;DHT22;11804;51.118;17.058;2022-08-01T19:11:43;22.10;99.90
23271;DHT22;11804;51.118;17.058;2022-08-01T19:14:11;22.20;99.90
23271;DHT22;11804;51.118;17.058;2022-08-01T19:16:39;22.20;99.90
23271;DHT22;11804;51.118;17.058;2022-08-01T19:19:07;22.10;99.90
23271;DHT22;11804;51.118;17.058;2022-08-01T19:21:38;22.20;99.90
23271;DHT22;11804;51.118;17.058;2022-08-01T19:24:06;22.30;99.90